Tiona, Pennsylvania
Current Conditions -  °F | °C
As of 10:53 AM on Friday 28 Nov 2014 (Local Time) from KBFD Reporting Station
Overcast Overcast  
Wind Chill:   Ceiling: 2900
Heat Index: 20°   Visibility: 9mi
Dew Point: 10°   Wind: 16mph
Humidity: 65%   Direction: 310°NW
Pressure: 30.18"   Gusts: 21mph
Location:  41.75°N, 79.07°W
Report Text: KBFD 281553Z AUTO 31014G18KT 9SM FEW013 SCT018 OVC029 M07/M12 A3018 RMK AO2 SNE52 SLP249 P0000 T10671122
Loading
Personal Weather Stations






























Interactive Weather Map New forecast layout! Learn more

10-Day Weather Forecast

Advertisements
Track Severe Weather on mobile